sensor_id;sensor_type;location;lat;lon;timestamp;P1;durP1;ratioP1;P2;durP2;ratioP2
20739;SDS011;10530;49.968;19.844;2022-10-17T00:02:53;23.80;;;9.23;;
20739;SDS011;10530;49.968;19.844;2022-10-17T00:07:57;21.80;;;8.88;;
20739;SDS011;10530;49.968;19.844;2022-10-17T00:12:59;20.55;;;9.05;;
20739;SDS011;10530;49.968;19.844;2022-10-17T00:18:02;19.13;;;8.53;;
20739;SDS011;10530;49.968;19.844;2022-10-17T00:23:05;17.45;;;8.43;;
20739;SDS011;10530;49.968;19.844;2022-10-17T00:28:09;17.20;;;7.90;;
20739;SDS011;10530;49.968;19.844;2022-10-17T00:33:16;18.52;;;8.90;;
20739;SDS011;10530;49.968;19.844;2022-10-17T00:38:18;20.85;;;8.35;;
20739;SDS011;10530;49.968;19.844;2022-10-17T00:43:21;18.17;;;8.10;;
20739;SDS011;10530;49.968;19.844;2022-10-17T00:48:24;18.20;;;8.23;;
20739;SDS011;10530;49.968;19.844;2022-10-17T00:53:27;18.77;;;8.17;;
20739;SDS011;10530;49.968;19.844;2022-10-17T00:58:30;18.42;;;7.47;;
20739;SDS011;10530;49.968;19.844;2022-10-17T01:03:33;18.10;;;7.55;;
20739;SDS011;10530;49.968;19.844;2022-10-17T01:08:36;17.40;;;7.33;;
20739;SDS011;10530;49.968;19.844;2022-10-17T01:14:00;20.00;;;7.97;;
20739;SDS011;10530;49.968;19.844;2022-10-17T01:41:38;20.98;;;7.55;;
20739;SDS011;10530;49.968;19.844;2022-10-17T01:46:48;17.07;;;7.67;;
20739;SDS011;10530;49.968;19.844;2022-10-17T01:51:55;19.40;;;7.00;;
20739;SDS011;10530;49.968;19.844;2022-10-17T01:57:06;16.95;;;7.75;;
20739;SDS011;10530;49.968;19.844;2022-10-17T02:02:15;14.93;;;6.10;;
20739;SDS011;10530;49.968;19.844;2022-10-17T02:07:20;13.68;;;6.50;;
20739;SDS011;10530;49.968;19.844;2022-10-17T02:28:14;23.87;;;6.83;;
20739;SDS011;10530;49.968;19.844;2022-10-17T02:33:35;17.38;;;7.13;;
20739;SDS011;10530;49.968;19.844;2022-10-17T02:38:43;14.50;;;6.13;;
20739;SDS011;10530;49.968;19.844;2022-10-17T02:43:47;14.23;;;6.10;;
20739;SDS011;10530;49.968;19.844;2022-10-17T02:59:11;18.02;;;7.10;;
20739;SDS011;10530;49.968;19.844;2022-10-17T03:04:17;13.60;;;6.53;;
20739;SDS011;10530;49.968;19.844;2022-10-17T03:09:20;19.80;;;7.07;;
20739;SDS011;10530;49.968;19.844;2022-10-17T03:14:24;20.50;;;6.57;;
20739;SDS011;10530;49.968;19.844;2022-10-17T03:19:27;18.03;;;6.57;;
20739;SDS011;10530;49.968;19.844;2022-10-17T03:24:29;15.65;;;6.75;;
20739;SDS011;10530;49.968;19.844;2022-10-17T03:29:32;15.50;;;5.90;;
20739;SDS011;10530;49.968;19.844;2022-10-17T03:34:37;14.18;;;6.25;;
20739;SDS011;10530;49.968;19.844;2022-10-17T03:39:40;16.08;;;6.97;;
20739;SDS011;10530;49.968;19.844;2022-10-17T03:44:43;16.63;;;7.07;;
20739;SDS011;10530;49.968;19.844;2022-10-17T03:49:46;14.00;;;6.50;;
20739;SDS011;10530;49.968;19.844;2022-10-17T03:54:50;15.77;;;6.13;;
20739;SDS011;10530;49.968;19.844;2022-10-17T03:59:53;19.65;;;6.63;;
20739;SDS011;10530;49.968;19.844;2022-10-17T04:04:56;14.43;;;6.50;;
20739;SDS011;10530;49.968;19.844;2022-10-17T04:09:59;18.30;;;6.93;;
20739;SDS011;10530;49.968;19.844;2022-10-17T04:15:02;18.85;;;7.20;;
20739;SDS011;10530;49.968;19.844;2022-10-17T04:20:05;17.70;;;6.37;;
20739;SDS011;10530;49.968;19.844;2022-10-17T04:25:09;14.60;;;6.03;;
20739;SDS011;10530;49.968;19.844;2022-10-17T04:30:15;14.05;;;5.85;;
20739;SDS011;10530;49.968;19.844;2022-10-17T04:35:19;14.97;;;5.70;;
20739;SDS011;10530;49.968;19.844;2022-10-17T04:40:27;15.38;;;6.07;;
20739;SDS011;10530;49.968;19.844;2022-10-17T04:45:30;15.77;;;5.53;;
20739;SDS011;10530;49.968;19.844;2022-10-17T04:50:37;14.45;;;6.25;;
20739;SDS011;10530;49.968;19.844;2022-10-17T04:56:16;18.40;;;7.18;;
20739;SDS011;10530;49.968;19.844;2022-10-17T05:01:21;16.80;;;6.70;;
20739;SDS011;10530;49.968;19.844;2022-10-17T05:06:27;14.70;;;6.10;;
20739;SDS011;10530;49.968;19.844;2022-10-17T05:11:59;14.73;;;6.53;;
20739;SDS011;10530;49.968;19.844;2022-10-17T05:17:05;19.83;;;6.28;;
20739;SDS011;10530;49.968;19.844;2022-10-17T05:22:09;20.67;;;5.95;;
20739;SDS011;10530;49.968;19.844;2022-10-17T05:27:13;14.23;;;6.30;;
20739;SDS011;10530;49.968;19.844;2022-10-17T05:32:16;16.63;;;6.43;;
20739;SDS011;10530;49.968;19.844;2022-10-17T05:37:19;15.63;;;5.87;;
20739;SDS011;10530;49.968;19.844;2022-10-17T05:42:25;18.08;;;7.18;;
20739;SDS011;10530;49.968;19.844;2022-10-17T05:47:30;17.38;;;6.93;;
20739;SDS011;10530;49.968;19.844;2022-10-17T05:52:34;15.67;;;6.53;;
20739;SDS011;10530;49.968;19.844;2022-10-17T05:57:44;17.45;;;7.43;;
20739;SDS011;10530;49.968;19.844;2022-10-17T06:02:51;16.30;;;6.67;;
20739;SDS011;10530;49.968;19.844;2022-10-17T06:07:55;19.13;;;6.90;;
20739;SDS011;10530;49.968;19.844;2022-10-17T06:13:06;15.50;;;6.53;;
20739;SDS011;10530;49.968;19.844;2022-10-17T06:18:10;18.77;;;7.40;;
20739;SDS011;10530;49.968;19.844;2022-10-17T06:23:13;21.45;;;8.02;;
20739;SDS011;10530;49.968;19.844;2022-10-17T06:28:26;19.63;;;7.83;;
20739;SDS011;10530;49.968;19.844;2022-10-17T06:33:31;17.20;;;7.47;;
20739;SDS011;10530;49.968;19.844;2022-10-17T06:38:35;16.25;;;7.47;;
20739;SDS011;10530;49.968;19.844;2022-10-17T06:43:43;17.83;;;7.73;;
20739;SDS011;10530;49.968;19.844;2022-10-17T06:49:06;17.17;;;8.18;;
20739;SDS011;10530;49.968;19.844;2022-10-17T06:54:30;21.83;;;8.20;;
20739;SDS011;10530;49.968;19.844;2022-10-17T06:59:50;21.90;;;9.07;;
20739;SDS011;10530;49.968;19.844;2022-10-17T07:04:59;20.05;;;7.97;;
20739;SDS011;10530;49.968;19.844;2022-10-17T07:10:02;24.17;;;9.57;;
20739;SDS011;10530;49.968;19.844;2022-10-17T07:15:10;21.13;;;9.20;;
20739;SDS011;10530;49.968;19.844;2022-10-17T07:20:13;19.53;;;8.57;;
20739;SDS011;10530;49.968;19.844;2022-10-17T07:25:17;20.80;;;8.82;;
20739;SDS011;10530;49.968;19.844;2022-10-17T07:30:26;17.15;;;8.45;;
20739;SDS011;10530;49.968;19.844;2022-10-17T07:35:43;20.37;;;8.57;;
20739;SDS011;10530;49.968;19.844;2022-10-17T07:40:52;18.67;;;8.43;;
20739;SDS011;10530;49.968;19.844;2022-10-17T07:45:56;18.93;;;8.00;;
20739;SDS011;10530;49.968;19.844;2022-10-17T07:51:03;17.90;;;8.40;;
20739;SDS011;10530;49.968;19.844;2022-10-17T07:56:07;20.45;;;8.02;;
20739;SDS011;10530;49.968;19.844;2022-10-17T08:01:10;17.00;;;7.67;;
20739;SDS011;10530;49.968;19.844;2022-10-17T08:06:17;18.83;;;8.07;;
20739;SDS011;10530;49.968;19.844;2022-10-17T08:11:19;21.00;;;7.97;;
20739;SDS011;10530;49.968;19.844;2022-10-17T08:16:23;16.60;;;7.47;;
20739;SDS011;10530;49.968;19.844;2022-10-17T08:21:26;16.85;;;7.30;;
20739;SDS011;10530;49.968;19.844;2022-10-17T08:26:29;15.23;;;7.00;;
20739;SDS011;10530;49.968;19.844;2022-10-17T08:31:32;14.93;;;6.93;;
20739;SDS011;10530;49.968;19.844;2022-10-17T08:36:35;14.63;;;6.63;;
20739;SDS011;10530;49.968;19.844;2022-10-17T08:47:10;10.02;;;5.45;;
20739;SDS011;10530;49.968;19.844;2022-10-17T08:57:50;14.70;;;7.20;;
20739;SDS011;10530;49.968;19.844;2022-10-17T09:02:56;16.40;;;7.67;;
20739;SDS011;10530;49.968;19.844;2022-10-17T09:19:31;11.87;;;6.70;;
20739;SDS011;10530;49.968;19.844;2022-10-17T09:24:24;12.20;;;6.72;;
20739;SDS011;10530;49.968;19.844;2022-10-17T09:29:39;11.37;;;6.87;;
20739;SDS011;10530;49.968;19.844;2022-10-17T09:34:44;12.07;;;6.90;;
20739;SDS011;10530;49.968;19.844;2022-10-17T09:39:47;11.95;;;5.75;;
20739;SDS011;10530;49.968;19.844;2022-10-17T09:45:34;8.27;;;5.07;;
20739;SDS011;10530;49.968;19.844;2022-10-17T09:50:27;12.02;;;5.43;;
20739;SDS011;10530;49.968;19.844;2022-10-17T09:55:41;8.37;;;5.17;;
20739;SDS011;10530;49.968;19.844;2022-10-17T10:00:49;7.93;;;5.13;;
20739;SDS011;10530;49.968;19.844;2022-10-17T10:06:06;10.10;;;5.13;;
20739;SDS011;10530;49.968;19.844;2022-10-17T10:11:15;8.57;;;5.13;;
20739;SDS011;10530;49.968;19.844;2022-10-17T10:16:21;8.57;;;4.68;;
20739;SDS011;10530;49.968;19.844;2022-10-17T10:21:31;8.57;;;4.83;;
20739;SDS011;10530;49.968;19.844;2022-10-17T10:26:39;8.10;;;5.07;;
20739;SDS011;10530;49.968;19.844;2022-10-17T10:31:45;8.73;;;5.10;;
20739;SDS011;10530;49.968;19.844;2022-10-17T10:36:54;8.70;;;4.93;;
20739;SDS011;10530;49.968;19.844;2022-10-17T10:41:59;9.25;;;4.93;;
20739;SDS011;10530;49.968;19.844;2022-10-17T10:52:31;7.97;;;4.88;;
20739;SDS011;10530;49.968;19.844;2022-10-17T10:57:42;8.70;;;5.30;;
20739;SDS011;10530;49.968;19.844;2022-10-17T11:08:25;8.30;;;4.90;;
20739;SDS011;10530;49.968;19.844;2022-10-17T11:13:41;9.97;;;4.93;;
20739;SDS011;10530;49.968;19.844;2022-10-17T11:19:07;8.98;;;5.10;;
20739;SDS011;10530;49.968;19.844;2022-10-17T11:24:37;11.15;;;5.72;;
20739;SDS011;10530;49.968;19.844;2022-10-17T11:29:49;8.57;;;5.27;;
20739;SDS011;10530;49.968;19.844;2022-10-17T11:34:58;9.10;;;5.20;;
20739;SDS011;10530;49.968;19.844;2022-10-17T11:40:43;8.30;;;5.27;;
20739;SDS011;10530;49.968;19.844;2022-10-17T11:45:44;8.63;;;4.93;;
20739;SDS011;10530;49.968;19.844;2022-10-17T11:51:23;9.38;;;5.72;;
20739;SDS011;10530;49.968;19.844;2022-10-17T11:56:50;9.20;;;5.10;;
20739;SDS011;10530;49.968;19.844;2022-10-17T12:02:19;8.77;;;5.28;;
20739;SDS011;10530;49.968;19.844;2022-10-17T12:18:36;8.77;;;5.05;;
20739;SDS011;10530;49.968;19.844;2022-10-17T12:23:39;11.83;;;5.40;;
20739;SDS011;10530;49.968;19.844;2022-10-17T12:28:42;10.27;;;5.80;;
20739;SDS011;10530;49.968;19.844;2022-10-17T12:33:56;9.60;;;5.00;;
20739;SDS011;10530;49.968;19.844;2022-10-17T12:44:50;7.72;;;4.93;;
20739;SDS011;10530;49.968;19.844;2022-10-17T12:49:40;9.97;;;5.43;;
20739;SDS011;10530;49.968;19.844;2022-10-17T13:05:33;9.00;;;5.57;;
20739;SDS011;10530;49.968;19.844;2022-10-17T13:10:38;9.00;;;5.13;;
20739;SDS011;10530;49.968;19.844;2022-10-17T13:15:48;7.80;;;4.77;;
20739;SDS011;10530;49.968;19.844;2022-10-17T13:20:59;9.02;;;4.80;;
20739;SDS011;10530;49.968;19.844;2022-10-17T13:31:28;9.15;;;4.93;;
20739;SDS011;10530;49.968;19.844;2022-10-17T13:36:34;9.30;;;3.92;;
20739;SDS011;10530;49.968;19.844;2022-10-17T13:41:37;8.67;;;3.83;;
20739;SDS011;10530;49.968;19.844;2022-10-17T13:46:40;6.97;;;3.90;;
20739;SDS011;10530;49.968;19.844;2022-10-17T13:51:46;8.20;;;4.20;;
20739;SDS011;10530;49.968;19.844;2022-10-17T13:56:55;6.97;;;3.78;;
20739;SDS011;10530;49.968;19.844;2022-10-17T14:01:59;9.38;;;4.30;;
20739;SDS011;10530;49.968;19.844;2022-10-17T14:07:03;7.37;;;4.13;;
20739;SDS011;10530;49.968;19.844;2022-10-17T14:12:10;7.85;;;3.60;;
20739;SDS011;10530;49.968;19.844;2022-10-17T14:17:21;7.53;;;3.70;;
20739;SDS011;10530;49.968;19.844;2022-10-17T14:22:27;9.35;;;3.95;;
20739;SDS011;10530;49.968;19.844;2022-10-17T14:27:35;9.73;;;3.95;;
20739;SDS011;10530;49.968;19.844;2022-10-17T14:32:41;7.77;;;4.10;;
20739;SDS011;10530;49.968;19.844;2022-10-17T14:37:45;9.25;;;4.22;;
20739;SDS011;10530;49.968;19.844;2022-10-17T14:42:50;8.13;;;3.90;;
20739;SDS011;10530;49.968;19.844;2022-10-17T14:48:11;7.75;;;4.10;;
20739;SDS011;10530;49.968;19.844;2022-10-17T14:53:19;8.20;;;4.10;;
20739;SDS011;10530;49.968;19.844;2022-10-17T14:58:30;9.07;;;4.13;;
20739;SDS011;10530;49.968;19.844;2022-10-17T15:03:34;8.95;;;4.07;;
20739;SDS011;10530;49.968;19.844;2022-10-17T15:08:37;9.70;;;4.23;;
20739;SDS011;10530;49.968;19.844;2022-10-17T15:13:40;11.15;;;4.88;;
20739;SDS011;10530;49.968;19.844;2022-10-17T15:18:46;11.43;;;4.38;;
20739;SDS011;10530;49.968;19.844;2022-10-17T15:23:50;10.10;;;4.07;;
20739;SDS011;10530;49.968;19.844;2022-10-17T15:28:53;10.02;;;4.35;;
20739;SDS011;10530;49.968;19.844;2022-10-17T15:33:56;14.17;;;5.03;;
20739;SDS011;10530;49.968;19.844;2022-10-17T15:38:59;18.05;;;5.70;;
20739;SDS011;10530;49.968;19.844;2022-10-17T15:44:03;11.68;;;5.03;;
20739;SDS011;10530;49.968;19.844;2022-10-17T15:49:08;22.57;;;5.97;;
20739;SDS011;10530;49.968;19.844;2022-10-17T15:54:13;17.75;;;5.57;;
20739;SDS011;10530;49.968;19.844;2022-10-17T15:59:17;13.43;;;5.50;;
20739;SDS011;10530;49.968;19.844;2022-10-17T16:04:23;11.02;;;5.45;;
20739;SDS011;10530;49.968;19.844;2022-10-17T16:09:28;13.30;;;5.18;;
20739;SDS011;10530;49.968;19.844;2022-10-17T16:19:34;13.88;;;4.90;;
20739;SDS011;10530;49.968;19.844;2022-10-17T16:24:37;14.00;;;5.13;;
20739;SDS011;10530;49.968;19.844;2022-10-17T16:29:40;12.80;;;4.93;;
20739;SDS011;10530;49.968;19.844;2022-10-17T16:34:43;14.98;;;4.55;;
20739;SDS011;10530;49.968;19.844;2022-10-17T16:39:46;11.13;;;4.97;;
20739;SDS011;10530;49.968;19.844;2022-10-17T16:44:53;13.00;;;4.60;;
20739;SDS011;10530;49.968;19.844;2022-10-17T16:49:56;13.03;;;5.53;;
20739;SDS011;10530;49.968;19.844;2022-10-17T16:54:59;16.88;;;5.72;;
20739;SDS011;10530;49.968;19.844;2022-10-17T17:00:03;14.65;;;6.07;;
20739;SDS011;10530;49.968;19.844;2022-10-17T17:05:07;17.47;;;7.50;;
20739;SDS011;10530;49.968;19.844;2022-10-17T17:10:10;14.43;;;6.40;;
20739;SDS011;10530;49.968;19.844;2022-10-17T17:15:13;20.73;;;7.27;;
20739;SDS011;10530;49.968;19.844;2022-10-17T17:20:16;20.50;;;7.20;;
20739;SDS011;10530;49.968;19.844;2022-10-17T17:25:19;18.00;;;6.55;;
20739;SDS011;10530;49.968;19.844;2022-10-17T17:30:22;18.37;;;6.97;;
20739;SDS011;10530;49.968;19.844;2022-10-17T17:35:26;14.68;;;7.10;;
20739;SDS011;10530;49.968;19.844;2022-10-17T17:40:29;12.57;;;5.63;;
20739;SDS011;10530;49.968;19.844;2022-10-17T17:45:33;12.20;;;5.13;;
20739;SDS011;10530;49.968;19.844;2022-10-17T17:50:36;11.18;;;4.88;;
20739;SDS011;10530;49.968;19.844;2022-10-17T17:55:41;14.10;;;5.23;;
20739;SDS011;10530;49.968;19.844;2022-10-17T18:00:44;10.85;;;4.95;;
20739;SDS011;10530;49.968;19.844;2022-10-17T18:05:46;12.30;;;5.33;;
20739;SDS011;10530;49.968;19.844;2022-10-17T18:10:50;12.45;;;5.55;;
20739;SDS011;10530;49.968;19.844;2022-10-17T18:15:56;17.10;;;5.03;;
20739;SDS011;10530;49.968;19.844;2022-10-17T18:21:00;14.33;;;6.07;;
20739;SDS011;10530;49.968;19.844;2022-10-17T18:26:03;12.98;;;5.10;;
20739;SDS011;10530;49.968;19.844;2022-10-17T18:31:07;12.97;;;4.93;;
20739;SDS011;10530;49.968;19.844;2022-10-17T18:36:37;11.57;;;4.95;;
20739;SDS011;10530;49.968;19.844;2022-10-17T18:41:39;12.10;;;5.15;;
20739;SDS011;10530;49.968;19.844;2022-10-17T18:46:43;13.80;;;5.67;;
20739;SDS011;10530;49.968;19.844;2022-10-17T18:51:51;13.43;;;5.13;;
20739;SDS011;10530;49.968;19.844;2022-10-17T18:56:54;15.20;;;5.53;;
20739;SDS011;10530;49.968;19.844;2022-10-17T19:01:57;14.63;;;5.32;;
20739;SDS011;10530;49.968;19.844;2022-10-17T19:07:00;15.68;;;5.72;;
20739;SDS011;10530;49.968;19.844;2022-10-17T19:12:03;12.93;;;5.43;;
20739;SDS011;10530;49.968;19.844;2022-10-17T19:17:06;12.55;;;5.50;;
20739;SDS011;10530;49.968;19.844;2022-10-17T19:22:09;14.23;;;5.50;;
20739;SDS011;10530;49.968;19.844;2022-10-17T19:27:12;13.20;;;5.40;;
20739;SDS011;10530;49.968;19.844;2022-10-17T19:32:15;13.05;;;5.57;;
20739;SDS011;10530;49.968;19.844;2022-10-17T19:37:23;15.20;;;6.17;;
20739;SDS011;10530;49.968;19.844;2022-10-17T19:42:27;15.15;;;6.05;;
20739;SDS011;10530;49.968;19.844;2022-10-17T19:47:31;14.17;;;5.60;;
20739;SDS011;10530;49.968;19.844;2022-10-17T19:52:34;15.50;;;5.10;;
20739;SDS011;10530;49.968;19.844;2022-10-17T19:57:37;15.30;;;5.97;;
20739;SDS011;10530;49.968;19.844;2022-10-17T20:02:40;17.17;;;6.03;;
20739;SDS011;10530;49.968;19.844;2022-10-17T20:07:43;13.90;;;5.70;;
20739;SDS011;10530;49.968;19.844;2022-10-17T20:12:46;14.80;;;5.90;;
20739;SDS011;10530;49.968;19.844;2022-10-17T20:17:49;14.63;;;5.40;;
20739;SDS011;10530;49.968;19.844;2022-10-17T20:22:52;12.65;;;5.38;;
20739;SDS011;10530;49.968;19.844;2022-10-17T20:27:55;16.47;;;5.73;;
20739;SDS011;10530;49.968;19.844;2022-10-17T20:32:58;13.18;;;5.65;;
20739;SDS011;10530;49.968;19.844;2022-10-17T20:38:01;15.73;;;6.40;;
20739;SDS011;10530;49.968;19.844;2022-10-17T20:43:04;17.63;;;6.53;;
20739;SDS011;10530;49.968;19.844;2022-10-17T20:48:12;14.48;;;6.57;;
20739;SDS011;10530;49.968;19.844;2022-10-17T20:53:16;20.40;;;8.07;;
20739;SDS011;10530;49.968;19.844;2022-10-17T20:58:38;18.55;;;7.57;;
20739;SDS011;10530;49.968;19.844;2022-10-17T21:03:41;17.53;;;7.47;;
20739;SDS011;10530;49.968;19.844;2022-10-17T21:08:47;16.85;;;7.18;;
20739;SDS011;10530;49.968;19.844;2022-10-17T21:13:53;13.05;;;6.53;;
20739;SDS011;10530;49.968;19.844;2022-10-17T21:18:59;17.80;;;6.73;;
20739;SDS011;10530;49.968;19.844;2022-10-17T21:24:05;16.70;;;7.38;;
20739;SDS011;10530;49.968;19.844;2022-10-17T21:29:13;22.40;;;8.03;;
20739;SDS011;10530;49.968;19.844;2022-10-17T21:34:17;21.20;;;8.70;;
20739;SDS011;10530;49.968;19.844;2022-10-17T21:39:22;19.25;;;7.60;;
20739;SDS011;10530;49.968;19.844;2022-10-17T21:44:26;24.40;;;8.90;;
20739;SDS011;10530;49.968;19.844;2022-10-17T21:49:29;26.73;;;9.77;;
20739;SDS011;10530;49.968;19.844;2022-10-17T21:54:32;25.47;;;10.23;;
20739;SDS011;10530;49.968;19.844;2022-10-17T21:59:34;28.77;;;9.90;;
20739;SDS011;10530;49.968;19.844;2022-10-17T22:04:37;23.00;;;8.88;;
20739;SDS011;10530;49.968;19.844;2022-10-17T22:09:40;22.27;;;8.23;;
20739;SDS011;10530;49.968;19.844;2022-10-17T22:14:43;21.75;;;8.48;;
20739;SDS011;10530;49.968;19.844;2022-10-17T22:19:46;18.40;;;7.50;;
20739;SDS011;10530;49.968;19.844;2022-10-17T22:24:49;16.63;;;7.03;;
20739;SDS011;10530;49.968;19.844;2022-10-17T22:29:52;15.48;;;6.65;;
20739;SDS011;10530;49.968;19.844;2022-10-17T22:34:55;18.73;;;6.67;;
20739;SDS011;10530;49.968;19.844;2022-10-17T22:39:58;16.17;;;6.45;;
20739;SDS011;10530;49.968;19.844;2022-10-17T22:45:00;17.27;;;7.00;;
20739;SDS011;10530;49.968;19.844;2022-10-17T22:50:04;16.52;;;6.55;;
20739;SDS011;10530;49.968;19.844;2022-10-17T22:55:07;14.90;;;5.78;;
20739;SDS011;10530;49.968;19.844;2022-10-17T23:00:10;16.07;;;5.67;;
20739;SDS011;10530;49.968;19.844;2022-10-17T23:05:14;15.38;;;5.93;;
20739;SDS011;10530;49.968;19.844;2022-10-17T23:10:17;16.07;;;6.03;;
20739;SDS011;10530;49.968;19.844;2022-10-17T23:15:20;13.40;;;5.20;;
20739;SDS011;10530;49.968;19.844;2022-10-17T23:20:22;13.52;;;5.95;;
20739;SDS011;10530;49.968;19.844;2022-10-17T23:25:25;12.57;;;5.53;;
20739;SDS011;10530;49.968;19.844;2022-10-17T23:30:30;17.08;;;6.40;;
20739;SDS011;10530;49.968;19.844;2022-10-17T23:35:34;18.63;;;7.13;;
20739;SDS011;10530;49.968;19.844;2022-10-17T23:40:36;16.33;;;6.82;;
20739;SDS011;10530;49.968;19.844;2022-10-17T23:45:39;18.58;;;7.20;;
20739;SDS011;10530;49.968;19.844;2022-10-17T23:50:43;13.83;;;6.17;;
20739;SDS011;10530;49.968;19.844;2022-10-17T23:55:46;21.65;;;8.13;;
